sensor_id;sensor_type;location;lat;lon;timestamp;pressure;altitude;pressure_sealevel;temperature;humidity
47530;BME280;33272;51.922;7.730;2023-06-01T00:00:56;145757.50;;;13.13;100.00
47530;BME280;33272;51.922;7.730;2023-06-01T00:03:24;145744.84;;;13.08;100.00
47530;BME280;33272;51.922;7.730;2023-06-01T00:05:53;145730.84;;;13.03;100.00
47530;BME280;33272;51.922;7.730;2023-06-01T00:08:21;145713.03;;;12.95;100.00
47530;BME280;33272;51.922;7.730;2023-06-01T00:10:48;145697.84;;;12.89;100.00
47530;BME280;33272;51.922;7.730;2023-06-01T00:13:15;145680.03;;;12.82;100.00
47530;BME280;33272;51.922;7.730;2023-06-01T00:15:42;145664.81;;;12.76;100.00
47530;BME280;33272;51.922;7.730;2023-06-01T00:18:10;145648.31;;;12.69;100.00
47530;BME280;33272;51.922;7.730;2023-06-01T00:20:38;145635.63;;;12.64;100.00
47530;BME280;33272;51.922;7.730;2023-06-01T00:23:07;145615.31;;;12.56;100.00
47530;BME280;33272;51.922;7.730;2023-06-01T00:25:34;145597.53;;;12.49;100.00
47530;BME280;33272;51.922;7.730;2023-06-01T00:28:01;145578.47;;;12.41;100.00
47530;BME280;33272;51.922;7.730;2023-06-01T00:30:28;145559.47;;;12.34;100.00
47530;BME280;33272;51.922;7.730;2023-06-01T00:32:55;145545.47;;;12.28;100.00
47530;BME280;33272;51.922;7.730;2023-06-01T00:35:22;145529.00;;;12.21;100.00
47530;BME280;33272;51.922;7.730;2023-06-01T00:37:49;145518.84;;;12.17;100.00
47530;BME280;33272;51.922;7.730;2023-06-01T00:40:18;145511.22;;;12.14;100.00
47530;BME280;33272;51.922;7.730;2023-06-01T00:42:45;145501.03;;;12.10;100.00
47530;BME280;33272;51.922;7.730;2023-06-01T00:45:12;145488.38;;;12.05;100.00
47530;BME280;33272;51.922;7.730;2023-06-01T00:47:40;145482.03;;;12.02;100.00
47530;BME280;33272;51.922;7.730;2023-06-01T00:50:09;145475.69;;;12.00;100.00
47530;BME280;33272;51.922;7.730;2023-06-01T00:52:37;145480.78;;;12.02;100.00
47530;BME280;33272;51.922;7.730;2023-06-01T00:55:06;145493.44;;;12.07;100.00
47530;BME280;33272;51.922;7.730;2023-06-01T00:57:34;145509.97;;;12.14;100.00
47530;BME280;33272;51.922;7.730;2023-06-01T01:00:03;145511.22;;;12.14;100.00
47530;BME280;33272;51.922;7.730;2023-06-01T01:02:36;145517.53;;;12.17;100.00
47530;BME280;33272;51.922;7.730;2023-06-01T01:05:05;145520.09;;;12.18;100.00
47530;BME280;33272;51.922;7.730;2023-06-01T01:07:44;145521.38;;;12.18;100.00
47530;BME280;33272;51.922;7.730;2023-06-01T01:10:25;145518.84;;;12.17;100.00
47530;BME280;33272;51.922;7.730;2023-06-01T01:13:06;145508.66;;;12.13;100.00
47530;BME280;33272;51.922;7.730;2023-06-01T01:15:43;145502.34;;;12.11;100.00
47530;BME280;33272;51.922;7.730;2023-06-01T01:18:16;145493.44;;;12.07;100.00
47530;BME280;33272;51.922;7.730;2023-06-01T01:20:53;145493.44;;;12.07;100.00
47530;BME280;33272;51.922;7.730;2023-06-01T01:23:47;145485.81;;;12.04;100.00
47530;BME280;33272;51.922;7.730;2023-06-01T01:26:24;145482.03;;;12.02;100.00
47530;BME280;33272;51.922;7.730;2023-06-01T01:29:01;145483.28;;;12.03;100.00
47530;BME280;33272;51.922;7.730;2023-06-01T01:31:31;145484.56;;;12.03;100.00
47530;BME280;33272;51.922;7.730;2023-06-01T01:33:59;145483.28;;;12.03;100.00
47530;BME280;33272;51.922;7.730;2023-06-01T01:36:29;145487.13;;;12.04;100.00
47530;BME280;33272;51.922;7.730;2023-06-01T01:38:56;145480.78;;;12.02;100.00
47530;BME280;33272;51.922;7.730;2023-06-01T01:41:23;145480.78;;;12.02;100.00
47530;BME280;33272;51.922;7.730;2023-06-01T01:43:52;145484.56;;;12.03;100.00
47530;BME280;33272;51.922;7.730;2023-06-01T01:46:25;145483.28;;;12.03;100.00
47530;BME280;33272;51.922;7.730;2023-06-01T01:49:02;145476.94;;;12.00;100.00
47530;BME280;33272;51.922;7.730;2023-06-01T01:51:40;145483.28;;;12.03;100.00
47530;BME280;33272;51.922;7.730;2023-06-01T01:54:13;145484.56;;;12.03;100.00
47530;BME280;33272;51.922;7.730;2023-06-01T01:56:40;145490.91;;;12.06;100.00
47530;BME280;33272;51.922;7.730;2023-06-01T01:59:08;145492.16;;;12.06;100.00
47530;BME280;33272;51.922;7.730;2023-06-01T02:01:37;145498.53;;;12.09;100.00
47530;BME280;33272;51.922;7.730;2023-06-01T02:04:07;145494.75;;;12.08;100.00
47530;BME280;33272;51.922;7.730;2023-06-01T02:06:34;145490.91;;;12.06;100.00
47530;BME280;33272;51.922;7.730;2023-06-01T02:09:02;145493.44;;;12.07;100.00
47530;BME280;33272;51.922;7.730;2023-06-01T02:11:32;145482.03;;;12.02;100.00
47530;BME280;33272;51.922;7.730;2023-06-01T02:13:59;145485.81;;;12.04;100.00
47530;BME280;33272;51.922;7.730;2023-06-01T02:16:26;145480.78;;;12.02;100.00
47530;BME280;33272;51.922;7.730;2023-06-01T02:18:54;145474.41;;;11.99;100.00
47530;BME280;33272;51.922;7.730;2023-06-01T02:21:23;145465.53;;;11.96;100.00
47530;BME280;33272;51.922;7.730;2023-06-01T02:23:50;145464.28;;;11.95;100.00
47530;BME280;33272;51.922;7.730;2023-06-01T02:26:17;145460.44;;;11.94;100.00
47530;BME280;33272;51.922;7.730;2023-06-01T02:28:44;145468.06;;;11.97;100.00
47530;BME280;33272;51.922;7.730;2023-06-01T02:31:12;145469.31;;;11.97;100.00
47530;BME280;33272;51.922;7.730;2023-06-01T02:33:40;145466.81;;;11.96;100.00
47530;BME280;33272;51.922;7.730;2023-06-01T02:36:08;145466.81;;;11.96;100.00
47530;BME280;33272;51.922;7.730;2023-06-01T02:38:35;145463.03;;;11.95;100.00
47530;BME280;33272;51.922;7.730;2023-06-01T02:41:02;145463.03;;;11.95;100.00
47530;BME280;33272;51.922;7.730;2023-06-01T02:43:29;145468.06;;;11.97;100.00
47530;BME280;33272;51.922;7.730;2023-06-01T02:45:56;145465.53;;;11.96;100.00
47530;BME280;33272;51.922;7.730;2023-06-01T02:48:23;145466.81;;;11.96;100.00
47530;BME280;33272;51.922;7.730;2023-06-01T02:50:50;145470.59;;;11.98;100.00
47530;BME280;33272;51.922;7.730;2023-06-01T02:53:18;145476.94;;;12.00;100.00
47530;BME280;33272;51.922;7.730;2023-06-01T02:55:46;145482.03;;;12.02;100.00
47530;BME280;33272;51.922;7.730;2023-06-01T02:58:13;145474.41;;;11.99;100.00
47530;BME280;33272;51.922;7.730;2023-06-01T03:00:42;145470.59;;;11.98;100.00
47530;BME280;33272;51.922;7.730;2023-06-01T03:03:09;145456.66;;;11.92;100.00
47530;BME280;33272;51.922;7.730;2023-06-01T03:05:36;145460.44;;;11.94;100.00
47530;BME280;33272;51.922;7.730;2023-06-01T03:08:03;145454.09;;;11.91;100.00
47530;BME280;33272;51.922;7.730;2023-06-01T03:10:33;145465.53;;;11.96;100.00
47530;BME280;33272;51.922;7.730;2023-06-01T03:13:00;145468.06;;;11.97;100.00
47530;BME280;33272;51.922;7.730;2023-06-01T03:15:27;145463.03;;;11.95;100.00
47530;BME280;33272;51.922;7.730;2023-06-01T03:17:55;145456.66;;;11.92;100.00
47530;BME280;33272;51.922;7.730;2023-06-01T03:20:22;145450.31;;;11.90;100.00
47530;BME280;33272;51.922;7.730;2023-06-01T03:22:49;145443.97;;;11.87;100.00
47530;BME280;33272;51.922;7.730;2023-06-01T03:25:16;145438.88;;;11.85;100.00
47530;BME280;33272;51.922;7.730;2023-06-01T03:27:44;145438.88;;;11.85;100.00
47530;BME280;33272;51.922;7.730;2023-06-01T03:30:12;145433.78;;;11.83;100.00
47530;BME280;33272;51.922;7.730;2023-06-01T03:32:40;145437.59;;;11.85;100.00
47530;BME280;33272;51.922;7.730;2023-06-01T03:35:09;145441.44;;;11.86;100.00
47530;BME280;33272;51.922;7.730;2023-06-01T03:37:38;145452.84;;;11.91;100.00
47530;BME280;33272;51.922;7.730;2023-06-01T03:40:06;145455.41;;;11.92;100.00
47530;BME280;33272;51.922;7.730;2023-06-01T03:42:36;145465.53;;;11.96;100.00
47530;BME280;33272;51.922;7.730;2023-06-01T03:45:06;145466.81;;;11.96;100.00
47530;BME280;33272;51.922;7.730;2023-06-01T03:47:33;145470.59;;;11.98;100.00
47530;BME280;33272;51.922;7.730;2023-06-01T03:50:01;145468.06;;;11.97;100.00
47530;BME280;33272;51.922;7.730;2023-06-01T03:52:29;145468.06;;;11.97;100.00
47530;BME280;33272;51.922;7.730;2023-06-01T03:55:00;145463.03;;;11.95;100.00
47530;BME280;33272;51.922;7.730;2023-06-01T03:57:27;145470.59;;;11.98;100.00
47530;BME280;33272;51.922;7.730;2023-06-01T03:59:54;145479.50;;;12.01;100.00
47530;BME280;33272;51.922;7.730;2023-06-01T04:02:22;145493.44;;;12.07;100.00
47530;BME280;33272;51.922;7.730;2023-06-01T04:04:50;145506.13;;;12.12;100.00
47530;BME280;33272;51.922;7.730;2023-06-01T04:07:17;145511.22;;;12.14;100.00
47530;BME280;33272;51.922;7.730;2023-06-01T04:09:47;145522.63;;;12.19;100.00
47530;BME280;33272;51.922;7.730;2023-06-01T04:12:15;145530.25;;;12.22;100.00
47530;BME280;33272;51.922;7.730;2023-06-01T04:14:42;145536.59;;;12.24;100.00
47530;BME280;33272;51.922;7.730;2023-06-01T04:17:09;145523.91;;;12.19;100.00
47530;BME280;33272;51.922;7.730;2023-06-01T04:19:38;145517.53;;;12.17;100.00
47530;BME280;33272;51.922;7.730;2023-06-01T04:22:05;145515.00;;;12.16;100.00
47530;BME280;33272;51.922;7.730;2023-06-01T04:24:32;145527.72;;;12.21;100.00
47530;BME280;33272;51.922;7.730;2023-06-01T04:27:00;145541.69;;;12.26;100.00
47530;BME280;33272;51.922;7.730;2023-06-01T04:29:28;145558.19;;;12.33;100.00
47530;BME280;33272;51.922;7.730;2023-06-01T04:31:55;145572.13;;;12.39;100.00
47530;BME280;33272;51.922;7.730;2023-06-01T04:34:22;145577.22;;;12.41;100.00
47530;BME280;33272;51.922;7.730;2023-06-01T04:36:51;145594.97;;;12.48;100.00
47530;BME280;33272;51.922;7.730;2023-06-01T04:39:18;145608.94;;;12.53;100.00
47530;BME280;33272;51.922;7.730;2023-06-01T04:41:45;145622.91;;;12.59;100.00
47530;BME280;33272;51.922;7.730;2023-06-01T04:44:12;145628.00;;;12.61;100.00
47530;BME280;33272;51.922;7.730;2023-06-01T04:46:41;145633.06;;;12.63;100.00
47530;BME280;33272;51.922;7.730;2023-06-01T04:49:08;145635.63;;;12.64;100.00
47530;BME280;33272;51.922;7.730;2023-06-01T04:51:37;145619.09;;;12.58;100.00
47530;BME280;33272;51.922;7.730;2023-06-01T04:54:07;145619.09;;;12.58;100.00
47530;BME280;33272;51.922;7.730;2023-06-01T04:56:35;145622.91;;;12.59;100.00
47530;BME280;33272;51.922;7.730;2023-06-01T04:59:02;145630.53;;;12.62;100.00
47530;BME280;33272;51.922;7.730;2023-06-01T05:01:30;145640.69;;;12.66;100.00
47530;BME280;33272;51.922;7.730;2023-06-01T05:03:58;145631.81;;;12.63;100.00
47530;BME280;33272;51.922;7.730;2023-06-01T05:06:26;145610.22;;;12.54;100.00
47530;BME280;33272;51.922;7.730;2023-06-01T05:08:53;145625.44;;;12.60;100.00
47530;BME280;33272;51.922;7.730;2023-06-01T05:11:21;145630.53;;;12.62;100.00
47530;BME280;33272;51.922;7.730;2023-06-01T05:13:48;145628.00;;;12.61;100.00
47530;BME280;33272;51.922;7.730;2023-06-01T05:16:16;145631.81;;;12.63;100.00
47530;BME280;33272;51.922;7.730;2023-06-01T05:18:43;145636.91;;;12.65;100.00
47530;BME280;33272;51.922;7.730;2023-06-01T05:21:10;145649.56;;;12.70;100.00
47530;BME280;33272;51.922;7.730;2023-06-01T05:23:37;145675.00;;;12.80;100.00
47530;BME280;33272;51.922;7.730;2023-06-01T05:26:05;145714.34;;;12.96;100.00
47530;BME280;33272;51.922;7.730;2023-06-01T05:28:34;145743.53;;;13.08;100.00
47530;BME280;33272;51.922;7.730;2023-06-01T05:31:01;145768.97;;;13.18;100.00
47530;BME280;33272;51.922;7.730;2023-06-01T05:33:28;145774.03;;;13.20;100.00
47530;BME280;33272;51.922;7.730;2023-06-01T05:35:55;145781.63;;;13.23;100.00
47530;BME280;33272;51.922;7.730;2023-06-01T05:38:22;145785.53;;;13.25;100.00
47530;BME280;33272;51.922;7.730;2023-06-01T05:40:49;145786.78;;;13.25;100.00
47530;BME280;33272;51.922;7.730;2023-06-01T05:43:16;145775.28;;;13.20;100.00
47530;BME280;33272;51.922;7.730;2023-06-01T05:45:44;145796.94;;;13.29;100.00
47530;BME280;33272;51.922;7.730;2023-06-01T05:48:12;145832.53;;;13.43;100.00
47530;BME280;33272;51.922;7.730;2023-06-01T05:50:40;145868.06;;;13.58;100.00
47530;BME280;33272;51.922;7.730;2023-06-01T05:53:07;145893.47;;;13.68;100.00
47530;BME280;33272;51.922;7.730;2023-06-01T05:55:35;145918.94;;;13.78;100.00
47530;BME280;33272;51.922;7.730;2023-06-01T05:58:02;145934.19;;;13.84;100.00
47530;BME280;33272;51.922;7.730;2023-06-01T06:00:29;145943.06;;;13.88;100.00
47530;BME280;33272;51.922;7.730;2023-06-01T06:02:58;145964.69;;;13.97;100.00
47530;BME280;33272;51.922;7.730;2023-06-01T06:05:25;145982.47;;;14.04;99.86
47530;BME280;33272;51.922;7.730;2023-06-01T06:07:52;145997.72;;;14.10;99.16
47530;BME280;33272;51.922;7.730;2023-06-01T06:10:19;146002.78;;;14.12;98.34
47530;BME280;33272;51.922;7.730;2023-06-01T06:12:46;145978.63;;;14.02;98.01
47530;BME280;33272;51.922;7.730;2023-06-01T06:15:13;145973.56;;;14.00;97.69
47530;BME280;33272;51.922;7.730;2023-06-01T06:17:40;145982.47;;;14.04;98.54
47530;BME280;33272;51.922;7.730;2023-06-01T06:20:11;145990.09;;;14.07;98.12
47530;BME280;33272;51.922;7.730;2023-06-01T06:22:38;146007.88;;;14.14;97.59
47530;BME280;33272;51.922;7.730;2023-06-01T06:25:06;146029.50;;;14.23;98.15
47530;BME280;33272;51.922;7.730;2023-06-01T06:27:34;146033.28;;;14.24;97.13
47530;BME280;33272;51.922;7.730;2023-06-01T06:30:01;146046.03;;;14.29;97.21
47530;BME280;33272;51.922;7.730;2023-06-01T06:32:28;146061.28;;;14.35;97.01
47530;BME280;33272;51.922;7.730;2023-06-01T06:34:55;146065.06;;;14.37;96.15
47530;BME280;33272;51.922;7.730;2023-06-01T06:37:23;146063.81;;;14.36;96.39
47530;BME280;33272;51.922;7.730;2023-06-01T06:39:50;146030.75;;;14.23;96.87
47530;BME280;33272;51.922;7.730;2023-06-01T06:42:17;146044.75;;;14.29;97.30
47530;BME280;33272;51.922;7.730;2023-06-01T06:44:44;146029.50;;;14.23;97.15
47530;BME280;33272;51.922;7.730;2023-06-01T06:47:11;146006.63;;;14.13;96.92
47530;BME280;33272;51.922;7.730;2023-06-01T06:49:41;145977.38;;;14.02;97.52
47530;BME280;33272;51.922;7.730;2023-06-01T06:52:09;145958.31;;;13.94;97.98
47530;BME280;33272;51.922;7.730;2023-06-01T06:54:38;145957.06;;;13.94;97.68
47530;BME280;33272;51.922;7.730;2023-06-01T06:57:06;145955.75;;;13.93;97.85
47530;BME280;33272;51.922;7.730;2023-06-01T06:59:34;145934.19;;;13.84;98.11
47530;BME280;33272;51.922;7.730;2023-06-01T07:02:01;145935.44;;;13.85;98.61
47530;BME280;33272;51.922;7.730;2023-06-01T07:04:29;145935.44;;;13.85;98.33
47530;BME280;33272;51.922;7.730;2023-06-01T07:06:56;145968.47;;;13.98;97.84
47530;BME280;33272;51.922;7.730;2023-06-01T07:09:23;145998.97;;;14.10;97.94
47530;BME280;33272;51.922;7.730;2023-06-01T07:11:51;146030.75;;;14.23;97.19
47530;BME280;33272;51.922;7.730;2023-06-01T07:14:18;146066.38;;;14.37;96.81
47530;BME280;33272;51.922;7.730;2023-06-01T07:16:46;146105.84;;;14.53;96.30
47530;BME280;33272;51.922;7.730;2023-06-01T07:19:13;146136.31;;;14.66;96.04
47530;BME280;33272;51.922;7.730;2023-06-01T07:21:40;146130.00;;;14.63;96.20
47530;BME280;33272;51.922;7.730;2023-06-01T07:24:07;146124.91;;;14.61;95.59
47530;BME280;33272;51.922;7.730;2023-06-01T07:26:34;146135.06;;;14.65;95.50
47530;BME280;33272;51.922;7.730;2023-06-01T07:29:03;146109.63;;;14.55;94.97
47530;BME280;33272;51.922;7.730;2023-06-01T07:31:32;146116.00;;;14.57;95.58
47530;BME280;33272;51.922;7.730;2023-06-01T07:34:00;146122.38;;;14.60;94.79
47530;BME280;33272;51.922;7.730;2023-06-01T07:36:27;146137.63;;;14.66;94.79
47530;BME280;33272;51.922;7.730;2023-06-01T07:38:59;146146.53;;;14.70;94.35
47530;BME280;33272;51.922;7.730;2023-06-01T07:41:26;146118.53;;;14.58;94.62
47530;BME280;33272;51.922;7.730;2023-06-01T07:43:53;146163.06;;;14.76;94.99
47530;BME280;33272;51.922;7.730;2023-06-01T07:46:21;146189.75;;;14.87;94.18
47530;BME280;33272;51.922;7.730;2023-06-01T07:48:48;146226.66;;;15.02;93.82
47530;BME280;33272;51.922;7.730;2023-06-01T07:51:16;146262.25;;;15.16;93.48
47530;BME280;33272;51.922;7.730;2023-06-01T07:53:43;146292.78;;;15.28;92.48
47530;BME280;33272;51.922;7.730;2023-06-01T07:56:10;146308.06;;;15.35;92.38
47530;BME280;33272;51.922;7.730;2023-06-01T07:58:37;146325.91;;;15.42;91.96
47530;BME280;33272;51.922;7.730;2023-06-01T08:01:05;146314.41;;;15.37;92.16
47530;BME280;33272;51.922;7.730;2023-06-01T08:03:33;146332.22;;;15.44;91.86
47530;BME280;33272;51.922;7.730;2023-06-01T08:06:01;146372.97;;;15.61;91.94
47530;BME280;33272;51.922;7.730;2023-06-01T08:08:30;146406.09;;;15.74;91.46
47530;BME280;33272;51.922;7.730;2023-06-01T08:10:57;146411.16;;;15.76;91.23
47530;BME280;33272;51.922;7.730;2023-06-01T08:13:24;146416.28;;;15.78;90.61
47530;BME280;33272;51.922;7.730;2023-06-01T08:15:51;146434.09;;;15.85;90.53
47530;BME280;33272;51.922;7.730;2023-06-01T08:18:19;146445.56;;;15.90;90.25
47530;BME280;33272;51.922;7.730;2023-06-01T08:20:49;146444.31;;;15.89;89.84
47530;BME280;33272;51.922;7.730;2023-06-01T08:23:16;146445.56;;;15.90;89.44
47530;BME280;33272;51.922;7.730;2023-06-01T08:25:44;146451.94;;;15.92;90.05
47530;BME280;33272;51.922;7.730;2023-06-01T08:28:11;146473.53;;;16.01;89.58
47530;BME280;33272;51.922;7.730;2023-06-01T08:30:38;146487.56;;;16.07;89.30
47530;BME280;33272;51.922;7.730;2023-06-01T08:33:06;146474.84;;;16.02;89.12
47530;BME280;33272;51.922;7.730;2023-06-01T08:35:33;146454.47;;;15.93;89.51
47530;BME280;33272;51.922;7.730;2023-06-01T08:38:01;146455.75;;;15.94;89.55
47530;BME280;33272;51.922;7.730;2023-06-01T08:40:29;146486.28;;;16.06;89.26
47530;BME280;33272;51.922;7.730;2023-06-01T08:42:59;146482.50;;;16.05;88.60
47530;BME280;33272;51.922;7.730;2023-06-01T08:45:29;146467.22;;;15.98;88.94
47530;BME280;33272;51.922;7.730;2023-06-01T08:47:58;146469.75;;;15.99;89.06
47530;BME280;33272;51.922;7.730;2023-06-01T08:50:27;146465.91;;;15.98;89.02
47530;BME280;33272;51.922;7.730;2023-06-01T08:52:54;146469.75;;;15.99;89.21
47530;BME280;33272;51.922;7.730;2023-06-01T08:55:24;146500.31;;;16.12;88.86
47530;BME280;33272;51.922;7.730;2023-06-01T08:57:53;146513.00;;;16.17;88.29
47530;BME280;33272;51.922;7.730;2023-06-01T09:00:21;146464.63;;;15.97;88.77
47530;BME280;33272;51.922;7.730;2023-06-01T09:02:49;146467.22;;;15.98;89.30
47530;BME280;33272;51.922;7.730;2023-06-01T09:05:16;146472.28;;;16.01;89.74
47530;BME280;33272;51.922;7.730;2023-06-01T09:07:44;146477.38;;;16.03;88.79
47530;BME280;33272;51.922;7.730;2023-06-01T09:10:12;146500.31;;;16.12;88.62
47530;BME280;33272;51.922;7.730;2023-06-01T09:12:51;146500.31;;;16.12;88.14
47530;BME280;33272;51.922;7.730;2023-06-01T09:15:20;146525.75;;;16.22;88.26
47530;BME280;33272;51.922;7.730;2023-06-01T09:17:49;146553.78;;;16.33;88.31
47530;BME280;33272;51.922;7.730;2023-06-01T09:20:23;146575.41;;;16.42;87.42
47530;BME280;33272;51.922;7.730;2023-06-01T09:22:51;146593.28;;;16.49;87.13
47530;BME280;33272;51.922;7.730;2023-06-01T09:25:25;146626.38;;;16.62;85.78
47530;BME280;33272;51.922;7.730;2023-06-01T09:27:56;146651.84;;;16.73;85.94
47530;BME280;33272;51.922;7.730;2023-06-01T09:30:25;146679.94;;;16.84;85.49
47530;BME280;33272;51.922;7.730;2023-06-01T09:33:09;146705.41;;;16.94;84.95
47530;BME280;33272;51.922;7.730;2023-06-01T09:35:41;146737.25;;;17.07;85.17
47530;BME280;33272;51.922;7.730;2023-06-01T09:38:08;146732.13;;;17.05;84.61
47530;BME280;33272;51.922;7.730;2023-06-01T09:40:38;146711.78;;;16.97;84.62
47530;BME280;33272;51.922;7.730;2023-06-01T09:43:20;146658.25;;;16.75;85.14
47530;BME280;33272;51.922;7.730;2023-06-01T09:46:04;146663.38;;;16.77;84.70
47530;BME280;33272;51.922;7.730;2023-06-01T09:48:32;146664.63;;;16.78;85.86
47530;BME280;33272;51.922;7.730;2023-06-01T09:50:59;146701.53;;;16.92;86.06
47530;BME280;33272;51.922;7.730;2023-06-01T09:53:26;146706.66;;;16.95;85.44
47530;BME280;33272;51.922;7.730;2023-06-01T09:55:57;146681.19;;;16.84;85.33
47530;BME280;33272;51.922;7.730;2023-06-01T09:58:26;146697.75;;;16.91;86.15
47530;BME280;33272;51.922;7.730;2023-06-01T10:00:54;146730.88;;;17.04;85.13
47530;BME280;33272;51.922;7.730;2023-06-01T10:03:22;146746.16;;;17.10;84.54
47530;BME280;33272;51.922;7.730;2023-06-01T10:05:50;146767.81;;;17.19;84.34
47530;BME280;33272;51.922;7.730;2023-06-01T10:08:18;146765.28;;;17.18;83.91
47530;BME280;33272;51.922;7.730;2023-06-01T10:10:47;146762.72;;;17.17;84.33
47530;BME280;33272;51.922;7.730;2023-06-01T10:13:15;146786.91;;;17.27;84.10
47530;BME280;33272;51.922;7.730;2023-06-01T10:15:44;146814.97;;;17.38;83.43
47530;BME280;33272;51.922;7.730;2023-06-01T10:18:11;146840.44;;;17.48;83.14
47530;BME280;33272;51.922;7.730;2023-06-01T10:20:39;146862.13;;;17.57;82.75
47530;BME280;33272;51.922;7.730;2023-06-01T10:23:06;146878.69;;;17.64;82.52
47530;BME280;33272;51.922;7.730;2023-06-01T10:25:41;146883.81;;;17.66;82.09
47530;BME280;33272;51.922;7.730;2023-06-01T10:28:11;146855.75;;;17.54;82.61
47530;BME280;33272;51.922;7.730;2023-06-01T10:30:39;146809.84;;;17.36;83.68
47530;BME280;33272;51.922;7.730;2023-06-01T10:33:08;146767.81;;;17.19;83.38
47530;BME280;33272;51.922;7.730;2023-06-01T10:36:02;146687.56;;;16.87;84.56
47530;BME280;33272;51.922;7.730;2023-06-01T10:38:29;146681.19;;;16.84;85.03
47530;BME280;33272;51.922;7.730;2023-06-01T10:41:28;146651.84;;;16.73;85.14
47530;BME280;33272;51.922;7.730;2023-06-01T10:43:56;146665.91;;;16.78;86.07
47530;BME280;33272;51.922;7.730;2023-06-01T10:46:40;146709.19;;;16.96;85.37
47530;BME280;33272;51.922;7.730;2023-06-01T10:49:09;146730.88;;;17.04;84.61
47530;BME280;33272;51.922;7.730;2023-06-01T10:51:36;146734.72;;;17.06;84.74
47530;BME280;33272;51.922;7.730;2023-06-01T10:54:29;146673.53;;;16.81;83.76
47530;BME280;33272;51.922;7.730;2023-06-01T10:57:20;146662.06;;;16.77;86.13
47530;BME280;33272;51.922;7.730;2023-06-01T11:00:16;146702.88;;;16.93;86.50
47530;BME280;33272;51.922;7.730;2023-06-01T11:02:57;146762.72;;;17.17;85.34
47530;BME280;33272;51.922;7.730;2023-06-01T11:05:46;146812.44;;;17.37;84.74
47530;BME280;33272;51.922;7.730;2023-06-01T11:08:52;146830.28;;;17.44;82.70
47530;BME280;33272;51.922;7.730;2023-06-01T11:11:20;146846.84;;;17.51;84.04
47530;BME280;33272;51.922;7.730;2023-06-01T11:14:07;146869.78;;;17.60;83.94
47530;BME280;33272;51.922;7.730;2023-06-01T11:16:35;146877.44;;;17.63;83.90
47530;BME280;33272;51.922;7.730;2023-06-01T11:19:04;146897.78;;;17.71;83.48
47530;BME280;33272;51.922;7.730;2023-06-01T11:21:39;146918.25;;;17.79;83.50
47530;BME280;33272;51.922;7.730;2023-06-01T11:24:10;146914.41;;;17.78;83.10
47530;BME280;33272;51.922;7.730;2023-06-01T11:26:40;146896.53;;;17.71;82.98
47530;BME280;33272;51.922;7.730;2023-06-01T11:29:14;146902.91;;;17.73;83.40
47530;BME280;33272;51.922;7.730;2023-06-01T11:31:44;146905.44;;;17.74;83.73
47530;BME280;33272;51.922;7.730;2023-06-01T11:34:14;146865.94;;;17.58;83.88
47530;BME280;33272;51.922;7.730;2023-06-01T11:36:47;146813.72;;;17.37;84.86
47530;BME280;33272;51.922;7.730;2023-06-01T11:39:19;146836.66;;;17.47;84.73
47530;BME280;33272;51.922;7.730;2023-06-01T11:41:49;146879.97;;;17.64;84.59
47530;BME280;33272;51.922;7.730;2023-06-01T11:44:17;146902.91;;;17.73;84.26
47530;BME280;33272;51.922;7.730;2023-06-01T11:46:52;146936.09;;;17.87;83.28
47530;BME280;33272;51.922;7.730;2023-06-01T11:49:19;146962.91;;;17.97;82.94
47530;BME280;33272;51.922;7.730;2023-06-01T11:51:48;146979.47;;;18.04;82.61
47530;BME280;33272;51.922;7.730;2023-06-01T11:54:22;146998.56;;;18.12;82.42
47530;BME280;33272;51.922;7.730;2023-06-01T11:56:50;147022.78;;;18.21;82.22
47530;BME280;33272;51.922;7.730;2023-06-01T11:59:18;147008.75;;;18.16;82.09
47530;BME280;33272;51.922;7.730;2023-06-01T12:01:47;147019.00;;;18.20;82.52
47530;BME280;33272;51.922;7.730;2023-06-01T12:04:15;147022.78;;;18.21;81.80
47530;BME280;33272;51.922;7.730;2023-06-01T12:06:43;146999.84;;;18.12;81.89
47530;BME280;33272;51.922;7.730;2023-06-01T12:09:12;146973.09;;;18.01;82.33
47530;BME280;33272;51.922;7.730;2023-06-01T12:11:41;146987.13;;;18.07;82.60
47530;BME280;33272;51.922;7.730;2023-06-01T12:14:10;146967.97;;;17.99;82.36
47530;BME280;33272;51.922;7.730;2023-06-01T12:16:52;146974.34;;;18.02;82.11
47530;BME280;33272;51.922;7.730;2023-06-01T12:19:20;146982.00;;;18.05;82.19
47530;BME280;33272;51.922;7.730;2023-06-01T12:21:48;146962.91;;;17.97;82.54
47530;BME280;33272;51.922;7.730;2023-06-01T12:24:18;146946.31;;;17.91;82.19
47530;BME280;33272;51.922;7.730;2023-06-01T12:26:45;146905.44;;;17.74;82.60
47530;BME280;33272;51.922;7.730;2023-06-01T12:29:12;146878.69;;;17.64;83.13
47530;BME280;33272;51.922;7.730;2023-06-01T12:31:39;146848.09;;;17.51;83.81
47530;BME280;33272;51.922;7.730;2023-06-01T12:34:18;146808.59;;;17.35;84.54
47530;BME280;33272;51.922;7.730;2023-06-01T12:36:45;146813.72;;;17.37;84.97
47530;BME280;33272;51.922;7.730;2023-06-01T12:39:12;146797.16;;;17.31;85.02
47530;BME280;33272;51.922;7.730;2023-06-01T12:41:48;146792.03;;;17.29;85.22
47530;BME280;33272;51.922;7.730;2023-06-01T12:44:20;146811.13;;;17.36;85.13
47530;BME280;33272;51.922;7.730;2023-06-01T12:46:48;146872.31;;;17.61;84.59
47530;BME280;33272;51.922;7.730;2023-06-01T12:49:22;146938.69;;;17.88;83.19
47530;BME280;33272;51.922;7.730;2023-06-01T12:51:49;146979.47;;;18.04;82.24
47530;BME280;33272;51.922;7.730;2023-06-01T12:54:16;147006.22;;;18.15;80.96
47530;BME280;33272;51.922;7.730;2023-06-01T12:56:44;147031.72;;;18.25;80.96